createdAt,value
2023-02-26T00:01:42.335Z,70.84
2023-02-26T00:04:11.905Z,70.70
2023-02-26T00:06:52.932Z,70.71
2023-02-26T00:09:22.808Z,70.92
2023-02-26T00:11:51.742Z,70.55
2023-02-26T00:14:22.072Z,70.52
2023-02-26T00:16:56.718Z,70.43
2023-02-26T00:19:25.380Z,70.29
2023-02-26T00:21:54.135Z,70.41
2023-02-26T00:24:22.358Z,70.29
2023-02-26T00:26:50.572Z,70.30
2023-02-26T00:29:19.571Z,70.28
2023-02-26T00:31:50.004Z,70.35
2023-02-26T00:34:18.915Z,70.26
2023-02-26T00:36:53.279Z,70.31
2023-02-26T00:39:39.095Z,70.18
2023-02-26T00:42:08.354Z,70.20
2023-02-26T00:44:37.374Z,70.19
2023-02-26T00:47:14.830Z,70.14
2023-02-26T00:49:56.005Z,70.16
2023-02-26T00:52:33.623Z,70.32
2023-02-26T00:55:02.075Z,70.21
2023-02-26T00:57:30.344Z,70.28
2023-02-26T00:59:58.547Z,70.55
2023-02-26T01:02:28.912Z,70.49
2023-02-26T01:04:57.761Z,70.81
2023-02-26T01:07:28.069Z,70.67
2023-02-26T01:09:56.838Z,70.68
2023-02-26T01:12:25.491Z,70.55
2023-02-26T01:14:54.252Z,70.81
2023-02-26T01:17:26.654Z,70.96
2023-02-26T01:20:03.474Z,70.61
2023-02-26T01:22:37.208Z,70.87
2023-02-26T01:25:10.364Z,70.85
2023-02-26T01:27:40.287Z,71.11
2023-02-26T01:30:10.032Z,71.19
2023-02-26T01:32:45.357Z,71.03
2023-02-26T01:35:24.859Z,71.03
2023-02-26T01:37:58.851Z,71.08
2023-02-26T01:40:46.590Z,71.34
2023-02-26T01:43:21.060Z,71.16
2023-02-26T01:46:01.866Z,71.43
2023-02-26T01:48:38.261Z,71.33
2023-02-26T01:51:08.164Z,71.34
2023-02-26T01:53:36.411Z,71.21
2023-02-26T01:56:10.613Z,71.28
2023-02-26T01:58:39.714Z,71.14
2023-02-26T02:01:08.896Z,71.07
2023-02-26T02:03:40.781Z,71.27
2023-02-26T02:06:16.566Z,71.23
2023-02-26T02:08:45.610Z,71.08
2023-02-26T02:11:15.624Z,71.07
2023-02-26T02:13:57.019Z,71.07
2023-02-26T02:16:33.152Z,71.03
2023-02-26T02:19:15.392Z,70.88
2023-02-26T02:21:57.076Z,71.01
2023-02-26T02:24:35.749Z,71.00
2023-02-26T02:27:15.082Z,70.96
2023-02-26T02:30:11.268Z,71.00
2023-02-26T02:32:45.812Z,71.00
2023-02-26T02:35:19.123Z,70.82
2023-02-26T02:37:52.013Z,70.99
2023-02-26T02:40:23.222Z,70.97
2023-02-26T02:42:56.947Z,71.01
2023-02-26T02:45:31.512Z,71.13
2023-02-26T02:48:07.045Z,71.12
2023-02-26T02:50:39.377Z,71.42
2023-02-26T02:53:12.260Z,71.31
2023-02-26T02:55:48.172Z,71.36
2023-02-26T02:58:21.051Z,71.59
2023-02-26T03:00:52.715Z,71.69
2023-02-26T03:03:28.510Z,71.66
2023-02-26T03:05:57.424Z,72.13
2023-02-26T03:08:30.702Z,72.05
2023-02-26T03:10:59.450Z,73.38
2023-02-26T03:13:28.329Z,73.08
2023-02-26T03:16:21.870Z,73.48
2023-02-26T03:19:04.717Z,73.77
2023-02-26T03:21:44.118Z,73.62
2023-02-26T03:24:19.752Z,73.80
2023-02-26T03:26:53.617Z,73.80
2023-02-26T03:29:36.079Z,73.96
2023-02-26T03:32:08.781Z,72.92
2023-02-26T03:34:42.575Z,73.29
2023-02-26T03:37:18.672Z,73.31
2023-02-26T03:39:51.024Z,73.94
2023-02-26T03:42:25.645Z,73.87
2023-02-26T03:45:02.714Z,74.44
2023-02-26T03:47:34.866Z,74.89
2023-02-26T03:50:07.995Z,73.96
2023-02-26T03:52:49.857Z,73.96
2023-02-26T03:55:48.957Z,74.51
2023-02-26T03:58:35.909Z,74.51
2023-02-26T04:01:30.220Z,74.47
2023-02-26T04:04:02.803Z,73.67
2023-02-26T04:06:33.670Z,73.61
2023-02-26T04:09:03.768Z,73.54
2023-02-26T04:11:38.156Z,74.40
2023-02-26T04:14:06.570Z,73.21
2023-02-26T04:16:39.668Z,74.19
2023-02-26T04:19:08.287Z,74.41
2023-02-26T04:21:38.971Z,74.15
2023-02-26T04:24:07.996Z,73.69
2023-02-26T04:26:37.641Z,73.47
2023-02-26T04:29:05.902Z,73.23
2023-02-26T04:31:34.350Z,74.21
2023-02-26T04:34:02.667Z,74.12
2023-02-26T04:36:31.264Z,74.44
2023-02-26T04:39:01.305Z,73.61
2023-02-26T04:41:29.819Z,74.36
2023-02-26T04:43:58.376Z,73.81
2023-02-26T04:46:30.069Z,74.59
2023-02-26T04:48:59.085Z,74.62
2023-02-26T04:51:27.459Z,74.26
2023-02-26T04:53:55.750Z,74.28
2023-02-26T04:56:26.922Z,73.86
2023-02-26T04:58:55.350Z,74.43
2023-02-26T05:01:28.394Z,73.96
2023-02-26T05:03:57.590Z,74.96
2023-02-26T05:06:26.518Z,74.44
2023-02-26T05:08:54.946Z,73.91
2023-02-26T05:11:23.610Z,74.41
2023-02-26T05:13:53.252Z,73.86
2023-02-26T05:16:21.591Z,74.31
2023-02-26T05:18:49.884Z,74.17
2023-02-26T05:21:19.424Z,73.93
2023-02-26T05:23:47.872Z,74.59
2023-02-26T05:26:16.178Z,74.23
2023-02-26T05:28:45.824Z,74.09
2023-02-26T05:31:15.852Z,74.22
2023-02-26T05:33:44.184Z,74.18
2023-02-26T05:36:12.750Z,75.46
2023-02-26T05:38:41.021Z,74.09
2023-02-26T05:41:09.299Z,74.31
2023-02-26T05:43:37.966Z,74.96
2023-02-26T05:46:06.678Z,74.23
2023-02-26T05:48:36.315Z,74.49
2023-02-26T05:51:04.756Z,74.19
2023-02-26T05:53:32.958Z,74.29
2023-02-26T05:56:01.208Z,73.96
2023-02-26T05:58:31.378Z,73.99
2023-02-26T06:00:59.871Z,72.96
2023-02-26T06:03:28.158Z,73.71
2023-02-26T06:05:57.782Z,74.15
2023-02-26T06:08:26.013Z,73.76
2023-02-26T06:10:54.236Z,74.15
2023-02-26T06:13:22.551Z,74.36
2023-02-26T06:15:52.211Z,74.50
2023-02-26T06:18:20.619Z,73.23
2023-02-26T06:20:48.848Z,74.67
2023-02-26T06:23:18.439Z,73.89
2023-02-26T06:25:47.120Z,74.04
2023-02-26T06:28:15.391Z,74.12
2023-02-26T06:30:43.626Z,73.79
2023-02-26T06:33:12.022Z,73.37
2023-02-26T06:35:40.294Z,74.40
2023-02-26T06:38:08.572Z,73.80
2023-02-26T06:40:38.191Z,74.15
2023-02-26T06:43:06.453Z,73.32
2023-02-26T06:45:34.713Z,74.47
2023-02-26T06:48:03.316Z,73.67
2023-02-26T06:50:31.592Z,73.42
2023-02-26T06:52:59.814Z,73.06
2023-02-26T06:55:28.330Z,74.10
2023-02-26T06:57:58.527Z,74.59
2023-02-26T07:00:27.286Z,73.92
2023-02-26T07:02:55.564Z,74.56
2023-02-26T07:05:24.113Z,74.21
2023-02-26T07:07:52.335Z,73.55
2023-02-26T07:10:21.542Z,73.58
2023-02-26T07:12:49.762Z,74.73
2023-02-26T07:15:19.656Z,74.08
2023-02-26T07:17:47.943Z,74.18
2023-02-26T07:20:16.368Z,74.02
2023-02-26T07:22:44.668Z,74.06
2023-02-26T07:25:13.995Z,75.12
2023-02-26T07:27:43.868Z,74.13
2023-02-26T07:30:13.441Z,73.75
2023-02-26T07:32:43.485Z,74.01
2023-02-26T07:35:12.053Z,73.80
2023-02-26T07:37:40.278Z,74.70
2023-02-26T07:40:09.912Z,75.02
2023-02-26T07:42:38.193Z,73.37
2023-02-26T07:45:08.102Z,74.92
2023-02-26T07:47:36.546Z,74.23
2023-02-26T07:50:07.035Z,74.06
2023-02-26T07:52:35.422Z,74.34
2023-02-26T07:55:03.600Z,73.96
2023-02-26T07:57:31.844Z,74.20
2023-02-26T08:00:00.111Z,74.26
2023-02-26T08:02:28.341Z,74.19
2023-02-26T08:04:57.008Z,74.98
2023-02-26T08:07:26.780Z,74.44
2023-02-26T08:09:54.981Z,73.73
2023-02-26T08:12:23.263Z,73.67
2023-02-26T08:14:51.489Z,73.84
2023-02-26T08:17:19.730Z,73.96
2023-02-26T08:19:47.962Z,74.29
2023-02-26T08:22:16.245Z,73.72
2023-02-26T08:24:45.864Z,73.30
2023-02-26T08:27:14.083Z,72.77
2023-02-26T08:29:42.846Z,73.52
2023-02-26T08:32:11.244Z,73.61
2023-02-26T08:34:40.542Z,73.86
2023-02-26T08:37:11.545Z,72.96
2023-02-26T08:39:40.819Z,73.41
2023-02-26T08:42:12.372Z,74.70
2023-02-26T08:44:41.541Z,74.16
2023-02-26T08:47:10.045Z,74.24
2023-02-26T08:49:39.113Z,73.37
2023-02-26T08:52:07.681Z,73.48
2023-02-26T08:54:35.848Z,73.20
2023-02-26T08:57:04.106Z,73.64
2023-02-26T08:59:33.780Z,75.14
2023-02-26T09:02:02.150Z,74.76
2023-02-26T09:04:31.269Z,75.04
2023-02-26T09:06:59.571Z,75.63
2023-02-26T09:09:27.963Z,75.76
2023-02-26T09:11:56.255Z,75.60
2023-02-26T09:14:24.489Z,74.65
2023-02-26T09:16:54.089Z,75.00
2023-02-26T09:19:22.593Z,75.55
2023-02-26T09:21:50.867Z,75.09
2023-02-26T09:24:19.392Z,74.96
2023-02-26T09:26:47.647Z,75.36
2023-02-26T09:29:15.863Z,75.40
2023-02-26T09:31:44.280Z,76.24
2023-02-26T09:34:14.668Z,75.75
2023-02-26T09:36:43.948Z,74.98
2023-02-26T09:39:12.382Z,75.13
2023-02-26T09:41:44.073Z,75.07
2023-02-26T09:44:20.150Z,73.84
2023-02-26T09:46:56.141Z,73.84
2023-02-26T09:49:33.970Z,74.09
2023-02-26T09:52:09.897Z,73.06
2023-02-26T09:54:45.028Z,73.75
2023-02-26T09:57:22.310Z,73.09
2023-02-26T09:59:52.113Z,73.43
2023-02-26T10:02:30.238Z,74.22
2023-02-26T10:05:09.269Z,72.88
2023-02-26T10:07:45.368Z,94.40
2023-02-26T10:10:20.635Z,98.59
2023-02-26T10:12:52.398Z,99.09
2023-02-26T10:15:24.848Z,96.84
2023-02-26T10:18:06.039Z,100.02
2023-02-26T10:20:40.406Z,98.38
2023-02-26T10:23:20.204Z,95.87
2023-02-26T10:25:51.019Z,99.59
2023-02-26T10:28:41.032Z,99.28
2023-02-26T10:31:19.575Z,98.02
2023-02-26T10:33:54.202Z,96.92
2023-02-26T10:36:30.897Z,97.29
2023-02-26T10:39:04.819Z,98.74
2023-02-26T10:41:37.989Z,98.83
2023-02-26T10:44:15.109Z,98.81
2023-02-26T10:46:53.143Z,98.92
2023-02-26T10:49:49.173Z,97.80
2023-02-26T10:52:20.733Z,96.54
2023-02-26T10:55:03.604Z,97.55
2023-02-26T10:57:35.561Z,97.97
2023-02-26T11:00:11.411Z,97.00
2023-02-26T11:02:43.508Z,98.17
2023-02-26T11:05:17.579Z,96.11
2023-02-26T11:07:50.843Z,95.39
2023-02-26T11:10:22.157Z,95.43
2023-02-26T11:12:51.579Z,96.66
2023-02-26T11:15:21.879Z,95.69
2023-02-26T11:17:54.869Z,94.89
2023-02-26T11:20:31.940Z,95.75
2023-02-26T11:23:03.951Z,94.17
2023-02-26T11:25:35.936Z,91.81
2023-02-26T11:28:07.986Z,92.10
2023-02-26T11:30:39.123Z,93.24
2023-02-26T11:33:18.210Z,94.21
2023-02-26T11:35:47.581Z,92.11
2023-02-26T11:38:24.147Z,92.67
2023-02-26T11:40:57.074Z,93.19
2023-02-26T11:43:28.447Z,90.41
2023-02-26T11:46:00.767Z,93.30
2023-02-26T11:48:35.970Z,93.25
2023-02-26T11:51:07.032Z,88.86
2023-02-26T11:53:38.242Z,92.20
2023-02-26T11:56:12.742Z,93.13
2023-02-26T11:58:44.625Z,90.82
2023-02-26T12:01:16.698Z,90.27
2023-02-26T12:03:48.180Z,91.56
2023-02-26T12:06:20.333Z,90.17
2023-02-26T12:08:50.368Z,90.34
2023-02-26T12:11:46.376Z,91.10
2023-02-26T12:14:31.553Z,91.89
2023-02-26T12:17:10.914Z,89.61
2023-02-26T12:19:47.662Z,88.23
2023-02-26T12:22:35.438Z,86.99
2023-02-26T12:25:21.782Z,84.63
2023-02-26T12:28:16.332Z,83.90
2023-02-26T12:31:04.303Z,85.23
2023-02-26T12:33:46.777Z,84.35
2023-02-26T12:36:28.293Z,86.55
2023-02-26T12:39:12.916Z,86.09
2023-02-26T12:41:58.214Z,85.99
2023-02-26T12:44:48.316Z,85.98
2023-02-26T12:47:36.174Z,86.64
2023-02-26T12:50:19.266Z,85.71
2023-02-26T12:53:19.792Z,86.48
2023-02-26T12:56:01.956Z,86.76
2023-02-26T12:59:05.372Z,87.54
2023-02-26T13:02:01.101Z,87.30
2023-02-26T13:05:08.654Z,87.89
2023-02-26T13:07:54.408Z,85.96
2023-02-26T13:10:29.844Z,84.19
2023-02-26T13:13:11.690Z,85.70
2023-02-26T13:16:01.099Z,84.30
2023-02-26T13:18:38.293Z,84.33
2023-02-26T13:21:10.213Z,84.45
2023-02-26T13:23:52.510Z,85.81
2023-02-26T13:26:22.457Z,86.48
2023-02-26T13:28:56.008Z,85.04
2023-02-26T13:31:30.265Z,86.56
2023-02-26T13:34:03.785Z,85.15
2023-02-26T13:36:35.183Z,86.42
2023-02-26T13:39:23.917Z,84.80
2023-02-26T13:42:00.431Z,84.51
2023-02-26T13:44:38.193Z,84.87
2023-02-26T13:47:30.857Z,85.66
2023-02-26T13:50:23.416Z,84.42
2023-02-26T13:52:54.408Z,85.58
2023-02-26T13:55:53.623Z,84.10
2023-02-26T13:58:34.911Z,84.89
2023-02-26T14:01:09.749Z,86.51
2023-02-26T14:03:46.607Z,84.84
2023-02-26T14:06:42.175Z,87.48
2023-02-26T14:09:36.934Z,85.84
2023-02-26T14:12:06.528Z,85.84
2023-02-26T14:14:41.242Z,86.41
2023-02-26T14:17:30.854Z,86.04
2023-02-26T14:20:20.809Z,86.68
2023-02-26T14:22:51.604Z,85.13
2023-02-26T14:25:23.831Z,84.84
2023-02-26T14:27:52.394Z,85.90
2023-02-26T14:30:29.575Z,86.51
2023-02-26T14:33:09.913Z,86.09
2023-02-26T14:35:44.103Z,85.24
2023-02-26T14:38:18.008Z,84.89
2023-02-26T14:40:50.006Z,84.89
2023-02-26T14:43:22.892Z,84.84
2023-02-26T14:45:51.916Z,83.37
2023-02-26T14:48:25.192Z,85.36
2023-02-26T14:51:07.607Z,84.64
2023-02-26T14:54:01.666Z,84.50
2023-02-26T14:56:44.300Z,85.52
2023-02-26T14:59:29.970Z,85.99
2023-02-26T15:02:16.651Z,85.78
2023-02-26T15:05:25.824Z,85.73
2023-02-26T15:08:10.962Z,85.46
2023-02-26T15:10:52.980Z,84.92
2023-02-26T15:13:37.992Z,85.02
2023-02-26T15:16:19.753Z,85.16
2023-02-26T15:19:00.808Z,86.74
2023-02-26T15:21:37.927Z,85.62
2023-02-26T15:24:12.022Z,86.41
2023-02-26T15:26:46.566Z,86.29
2023-02-26T15:29:16.427Z,86.61
2023-02-26T15:31:46.395Z,83.99
2023-02-26T15:34:17.292Z,83.16
2023-02-26T15:36:47.026Z,84.07
2023-02-26T15:39:18.692Z,84.97
2023-02-26T15:41:49.400Z,85.08
2023-02-26T15:44:20.943Z,85.55
2023-02-26T15:46:58.092Z,85.35
2023-02-26T15:49:30.524Z,85.17
2023-02-26T15:52:00.560Z,85.34
2023-02-26T15:54:36.685Z,86.93
2023-02-26T15:57:05.583Z,87.10
2023-02-26T15:59:35.543Z,87.19
2023-02-26T16:02:04.769Z,87.44
2023-02-26T16:04:36.771Z,87.64
2023-02-26T16:07:05.159Z,88.60
2023-02-26T16:09:36.644Z,87.83
2023-02-26T16:12:08.950Z,87.02
2023-02-26T16:14:40.791Z,87.80
2023-02-26T16:17:14.169Z,86.93
2023-02-26T16:19:47.242Z,86.26
2023-02-26T16:22:22.249Z,87.54
2023-02-26T16:24:56.125Z,86.89
2023-02-26T16:27:28.039Z,87.95
2023-02-26T16:29:58.992Z,88.02
2023-02-26T16:32:30.557Z,88.31
2023-02-26T16:35:02.181Z,88.14
2023-02-26T16:37:36.155Z,88.06
2023-02-26T16:40:18.987Z,87.71
2023-02-26T16:42:55.136Z,88.13
2023-02-26T16:45:49.258Z,87.63
2023-02-26T16:48:22.587Z,87.53
2023-02-26T16:50:57.897Z,87.25
2023-02-26T16:53:34.987Z,87.77
2023-02-26T16:56:06.509Z,88.14
2023-02-26T16:58:35.891Z,87.67
2023-02-26T17:01:09.179Z,86.83
2023-02-26T17:03:40.610Z,87.22
2023-02-26T17:06:11.781Z,86.86
2023-02-26T17:08:49.174Z,87.78
2023-02-26T17:11:25.308Z,87.47
2023-02-26T17:14:10.128Z,87.23
2023-02-26T17:16:38.445Z,86.87
2023-02-26T17:19:07.067Z,86.23
2023-02-26T17:21:37.141Z,86.40
2023-02-26T17:24:05.622Z,86.91
2023-02-26T17:26:35.407Z,86.20
2023-02-26T17:29:03.936Z,87.29
2023-02-26T17:31:32.229Z,87.14
2023-02-26T17:34:00.517Z,86.86
2023-02-26T17:36:29.850Z,87.09
2023-02-26T17:38:58.117Z,86.12
2023-02-26T17:41:28.504Z,86.63
2023-02-26T17:43:58.428Z,83.67
2023-02-26T17:46:26.892Z,83.07
2023-02-26T17:48:55.135Z,82.04
2023-02-26T17:51:23.582Z,81.17
2023-02-26T17:53:51.846Z,80.36
2023-02-26T17:56:26.699Z,79.53
2023-02-26T17:58:56.798Z,79.32
2023-02-26T18:01:28.620Z,78.92
2023-02-26T18:03:57.778Z,78.34
2023-02-26T18:06:26.448Z,78.45
2023-02-26T18:08:54.735Z,78.38
2023-02-26T18:11:25.933Z,78.17
2023-02-26T18:13:55.406Z,78.13
2023-02-26T18:16:29.310Z,78.14
2023-02-26T18:18:58.616Z,78.48
2023-02-26T18:21:27.579Z,78.45
2023-02-26T18:23:57.568Z,78.40
2023-02-26T18:26:27.848Z,78.20
2023-02-26T18:28:56.720Z,78.20
2023-02-26T18:31:34.420Z,78.25
2023-02-26T18:34:04.850Z,78.11
2023-02-26T18:36:37.797Z,77.92
2023-02-26T18:39:08.651Z,77.92
2023-02-26T18:41:37.030Z,77.90
2023-02-26T18:44:05.372Z,77.20
2023-02-26T18:46:40.152Z,77.65
2023-02-26T18:49:08.614Z,77.63
2023-02-26T18:51:36.939Z,77.43
2023-02-26T18:54:05.393Z,77.30
2023-02-26T18:56:33.771Z,77.24
2023-02-26T18:59:02.076Z,76.81
2023-02-26T19:01:30.733Z,76.95
2023-02-26T19:04:00.622Z,76.67
2023-02-26T19:06:28.900Z,77.06
2023-02-26T19:08:57.178Z,77.08
2023-02-26T19:11:25.685Z,76.64
2023-02-26T19:13:54.178Z,76.94
2023-02-26T19:16:23.237Z,77.00
2023-02-26T19:18:52.135Z,76.50
2023-02-26T19:21:21.724Z,76.89
2023-02-26T19:23:49.977Z,76.86
2023-02-26T19:26:18.439Z,76.98
2023-02-26T19:28:47.110Z,76.98
2023-02-26T19:31:16.784Z,76.89
2023-02-26T19:33:45.171Z,76.92
2023-02-26T19:36:13.633Z,77.04
2023-02-26T19:38:47.439Z,76.96
2023-02-26T19:41:18.808Z,77.01
2023-02-26T19:43:48.808Z,76.63
2023-02-26T19:46:17.344Z,76.96
2023-02-26T19:48:46.873Z,77.02
2023-02-26T19:51:15.215Z,77.58
2023-02-26T19:53:45.024Z,77.08
2023-02-26T19:56:14.821Z,77.79
2023-02-26T19:58:44.190Z,77.63
2023-02-26T20:01:12.571Z,76.94
2023-02-26T20:03:40.886Z,77.69
2023-02-26T20:06:10.516Z,78.28
2023-02-26T20:08:40.232Z,78.27
2023-02-26T20:11:10.154Z,78.55
2023-02-26T20:13:38.871Z,78.14
2023-02-26T20:16:10.251Z,78.97
2023-02-26T20:18:39.968Z,78.90
2023-02-26T20:21:10.256Z,79.51
2023-02-26T20:23:40.877Z,80.65
2023-02-26T20:26:12.455Z,79.47
2023-02-26T20:28:43.305Z,80.24
2023-02-26T20:31:12.768Z,79.88
2023-02-26T20:33:41.329Z,79.44
2023-02-26T20:36:10.814Z,79.87
2023-02-26T20:38:40.540Z,80.12
2023-02-26T20:41:10.515Z,80.06
2023-02-26T20:43:39.369Z,80.12
2023-02-26T20:46:07.806Z,78.79
2023-02-26T20:48:40.419Z,78.60
2023-02-26T20:51:11.897Z,78.44
2023-02-26T20:53:41.200Z,78.19
2023-02-26T20:56:10.968Z,79.14
2023-02-26T20:58:41.307Z,79.00
2023-02-26T21:01:09.637Z,79.08
2023-02-26T21:03:38.020Z,78.40
2023-02-26T21:06:08.294Z,79.32
2023-02-26T21:08:36.545Z,78.63
2023-02-26T21:11:05.066Z,77.80
2023-02-26T21:13:34.934Z,78.79
2023-02-26T21:16:04.025Z,78.47
2023-02-26T21:18:33.354Z,78.85
2023-02-26T21:21:04.936Z,78.89
2023-02-26T21:23:34.036Z,78.66
2023-02-26T21:26:02.263Z,77.79
2023-02-26T21:28:30.578Z,78.43
2023-02-26T21:31:00.346Z,77.95
2023-02-26T21:33:28.682Z,78.34
2023-02-26T21:35:57.226Z,77.63
2023-02-26T21:38:25.561Z,77.21
2023-02-26T21:40:54.525Z,77.05
2023-02-26T21:43:22.911Z,77.72
2023-02-26T21:45:51.215Z,77.68
2023-02-26T21:48:20.946Z,77.12
2023-02-26T21:50:52.029Z,76.95
2023-02-26T21:53:20.330Z,76.57
2023-02-26T21:55:48.582Z,76.79
2023-02-26T21:58:16.838Z,76.86
2023-02-26T22:00:45.654Z,77.01
2023-02-26T22:03:13.977Z,76.78
2023-02-26T22:05:43.908Z,76.79
2023-02-26T22:08:12.248Z,76.83
2023-02-26T22:10:40.530Z,76.18
2023-02-26T22:13:08.768Z,76.92
2023-02-26T22:15:37.024Z,76.78
2023-02-26T22:18:05.781Z,76.53
2023-02-26T22:20:34.052Z,76.91
2023-02-26T22:23:04.669Z,76.57
2023-02-26T22:25:33.433Z,76.84
2023-02-26T22:28:01.740Z,76.67
2023-02-26T22:30:30.031Z,77.24
2023-02-26T22:32:58.400Z,76.83
2023-02-26T22:35:26.656Z,76.97
2023-02-26T22:37:54.944Z,76.53
2023-02-26T22:40:26.290Z,76.70
2023-02-26T22:42:54.614Z,77.13
2023-02-26T22:45:22.865Z,76.41
2023-02-26T22:47:51.431Z,77.37
2023-02-26T22:50:20.027Z,76.69
2023-02-26T22:52:49.346Z,77.21
2023-02-26T22:55:18.068Z,77.24
2023-02-26T22:57:47.679Z,77.21
2023-02-26T23:00:20.042Z,76.80
2023-02-26T23:02:49.633Z,77.43
2023-02-26T23:05:19.538Z,77.36
2023-02-26T23:07:48.938Z,76.92
2023-02-26T23:10:21.496Z,77.41
2023-02-26T23:12:51.146Z,77.49
2023-02-26T23:15:19.585Z,77.13
2023-02-26T23:17:47.824Z,77.72
2023-02-26T23:20:16.973Z,76.82
2023-02-26T23:22:45.337Z,77.23
2023-02-26T23:25:13.854Z,77.50
2023-02-26T23:27:42.590Z,77.24
2023-02-26T23:30:13.688Z,77.78
2023-02-26T23:32:42.029Z,77.28
2023-02-26T23:35:11.278Z,77.13
2023-02-26T23:37:39.639Z,77.84
2023-02-26T23:40:09.399Z,77.63
2023-02-26T23:42:39.348Z,76.79
2023-02-26T23:45:08.894Z,77.59
2023-02-26T23:47:38.762Z,77.33
2023-02-26T23:50:08.382Z,77.31
2023-02-26T23:52:36.845Z,77.46
2023-02-26T23:55:06.296Z,77.67
2023-02-26T23:57:34.556Z,77.30
